AirNav   Air Wisconsin pilot careers
 
 515 users online  

NY47 Wyeth Ayerst Heliport
Pearl River, New York, USA

GOING TO PEARL RIVER?


FAA INFORMATION EFFECTIVE 26 APRIL 2018

Location

FAA Identifier: NY47
Lat/Long: 41-04-39.0000N / 074-01-29.0000W
41-04.650000N / 074-01.483333W
41.0775000 / -74.0247222
(estimated)
Elevation: 270 ft. / 82 m
Variation: 13W (2000)
From city: 1 mile N of PEARL RIVER, NY
Time zone: UTC -4 (UTC -5 during Standard Time)
Zip code: 10965

Heliport Operations

Heliport use: Private use. Permission required prior to landing
Activation date: 09/2002
Control tower: no
ARTCC: NEW YORK CENTER
FSS: NEW YORK FLIGHT SERVICE STATION
Attendance: UNATNDD
Wind indicator: lighted
Segmented circle: no
Lights: SS-SR

Heliport Communications

WX ASOS at TEB (14 nm S): PHONE 201-393-0855
WX ASOS at HPN (14 nm E): PHONE 914-288-0216
WX ASOS at CDW (17 nm SW): PHONE 973-575-4417
WX ASOS at LGA (19 nm S): PHONE 718-672-6317

Nearby radio navigation aids

VOR radial/distance  VOR name  Freq  Var
TEBr018/13.8TETERBORO VOR/DME108.4011W
LGAr350/19.0LA GUARDIA VOR/DME113.1012W
SAXr100/23.2SPARTA VORTAC115.7011W
CMKr251/23.4CARMEL VOR/DME116.6012W
CRIr359/28.5CANARSIE VOR/DME112.3011W
JFKr349/29.0KENNEDY VOR/DME115.9012W
HUOr139/32.4HUGUENOT VOR/DME116.1011W
IGNr206/36.4KINGSTON VOR/DME117.6012W
DPKr310/36.9DEER PARK VOR/DME117.7012W
STWr094/38.5STILLWATER VOR/DME109.6011W
BWZr076/39.8BROADWAY VOR/DME114.2011W

 
NDB name  Hdg/Dist  Freq  Var  ID
STANWYCK190/27.026112WSKU ... -.- ..-
CHATHAM055/27.325413WCAT -.-. .- -
BRIDGE000/31.241412WOGY --- --. -.--
BABYLON324/37.927514WBBN -... -... -.

Heliport Services

Runway Information

Helipad H1

Dimensions: 60 x 60 ft. / 18 x 18 m
Surface: asphalt
Operational restrictions: RT H1 ALL TFC PATTERNS ON EAST SIDE OF ARPT.
Traffic pattern: leftleft

Heliport Ownership and Management from official FAA records

Ownership: Privately-owned
Owner: WYETH AYERST, INC.
401 N. MIDDLETOWN RD
PEARL RIVER, NY 10965
Phone (845) 602-4847
Manager: TIM STROHMEYER
401 N. MIDDLETOWN RD
PEARL RIVER, NY 10965
Phone (845) 602-4847

Additional Remarks

A52-H1 RY H1 PLINES EAST, TREES ON NORTH APCH/DEP PATH, ELEVATED GND ON SOUTH APCH/DEP PATH.

Instrument Procedures

There are no published instrument procedures at NY47.

Some nearby airports with instrument procedures:

KTEB - Teterboro Airport (14 nm S)
KHPN - Westchester County Airport (14 nm E)
4N1 - Greenwood Lake Airport (15 nm W)
N07 - Lincoln Park Airport (15 nm SW)
KCDW - Essex County Airport (17 nm SW)
KLGA - LaGuardia Airport (19 nm S)
KJRA - West 30th St Heliport (19 nm S)
 
Loc | Ops | Rwys | IFR | FBO | Links
Com | Nav | Svcs | Stats | Notes

AirNav Hotels Sweepstakes
 
Area around NY47 (Wyeth Ayerst Heliport)
 
Road maps at: MapQuest Bing Google
 
Aerial photo
No photo
 
Sectional chart

 
Airport distance calculator
Flying to Wyeth Ayerst Heliport? Find the distance to fly.

From to NY47

Sunrise and sunset
Times for 22-May-2018
 Local
(UTC-4)
 Zulu
(UTC)
Morning civil twilight05:0109:01
Sunrise05:3309:33
Sunset20:1300:13
Evening civil twilight20:4500:45

Current date and time
Zulu (UTC)  22-May-2018 10:46:09
Local (UTC-4)  22-May-2018 06:46:09
 
METAR
KTEB 
13nm S 
220951Z 00000KT 10SM CLR 16/11 A3013 RMK AO2 SLP203 T01610106
KHPN 
15nm E 
220956Z 00000KT 10SM CLR 14/11 A3013 RMK AO2 SLP201 T01390106
KCDW 
17nm SW 
220953Z AUTO 00000KT 10SM CLR 15/13 A3014 RMK AO2 SLP212 T01500128
KNYC 
18nm S 
220951Z AUTO 00000KT 10SM CLR 18/11 A3017 RMK AO2 SLP207 T01780106
KLGA 
19nm S 
220951Z 18005KT 10SM SCT150 BKN170 BKN250 18/09 A3014 RMK AO2 SLP205 T01830094
KJRB 
23nm S 
221035Z 00000KT 10SM CLR 17/12 A3016 RMK AO2 SLP301 PWINO FZRANO RVRNO
KEWR 
25nm S 
220951Z 00000KT 10SM BKN180 OVC230 17/11 A3014 RMK AO2 SLP205 T01720106
KMMU 
25nm SW 
221035Z AUTO 00000KT 10SM SCT090 14/13 A3015 RMK AO2
TAF
KTEB 
13nm S 
220832Z 2209/2312 VRB02KT P6SM SCT150 OVC250 FM221300 16005KT P6SM BKN070 OVC150 FM221600 14005KT 6SM -SHRA BKN035 OVC050 FM221900 VRB04KT 3SM -SHRA BR OVC015 FM230000 VRB04KT 2SM -SHRA BR OVC003
KHPN 
15nm E 
220832Z 2209/2306 VRB02KT P6SM FEW150 OVC250 FM221300 14005KT P6SM BKN070 OVC150 FM221700 07005KT 6SM -SHRA BKN035 OVC060 FM222100 08005KT 3SM -SHRA BR OVC008 FM230000 VRB02KT 2SM -SHRA BR OVC004 AMD NOT SKED
KLGA 
19nm S 
220832Z 2209/2312 19004KT P6SM SCT150 OVC250 FM221300 14006KT P6SM BKN090 OVC150 FM221700 10008KT 6SM -SHRA BKN035 OVC050 FM222100 06006KT 5SM -SHRA BR OVC015 FM230100 07005KT 3SM -SHRA BR OVC008 FM230500 VRB04KT 2SM -SHRA BR OVC006
NOTAMs
Click for the latest NOTAMs
NOTAMs are issued by the DoD/FAA and will open in a separate window not controlled by AirNav.

 

 
 

Would you like to see your business listed on this page?

 If your business provides an interesting product or service to pilots, flight crews, aircraft, or users of the Wyeth Ayerst Heliport, you should consider listing it here.  To start the listing process, click on the button below
 
Add a business
 

Other Pages about Wyeth Ayerst Heliport

Update a link
 
Copyright © AirNav, LLC. All rights reserved. Privacy Policy  Contact